sensor_id;sensor_type;location;lat;lon;timestamp;temperature;humidity
9219;DHT22;4644;48.858;9.184;2022-11-25T00:02:17;3.40;99.90
9219;DHT22;4644;48.858;9.184;2022-11-25T00:04:44;3.50;99.90
9219;DHT22;4644;48.858;9.184;2022-11-25T00:07:12;3.40;99.90
9219;DHT22;4644;48.858;9.184;2022-11-25T00:09:40;3.40;99.90
9219;DHT22;4644;48.858;9.184;2022-11-25T00:12:07;3.40;99.90
9219;DHT22;4644;48.858;9.184;2022-11-25T00:14:34;3.40;99.90
9219;DHT22;4644;48.858;9.184;2022-11-25T00:17:01;3.50;99.90
9219;DHT22;4644;48.858;9.184;2022-11-25T00:19:28;3.50;99.90
9219;DHT22;4644;48.858;9.184;2022-11-25T00:21:55;3.50;99.90
9219;DHT22;4644;48.858;9.184;2022-11-25T00:24:23;3.50;99.90
9219;DHT22;4644;48.858;9.184;2022-11-25T00:26:50;3.50;99.90
9219;DHT22;4644;48.858;9.184;2022-11-25T00:29:17;3.50;99.90
9219;DHT22;4644;48.858;9.184;2022-11-25T00:31:44;3.50;99.90
9219;DHT22;4644;48.858;9.184;2022-11-25T00:34:12;3.40;99.90
9219;DHT22;4644;48.858;9.184;2022-11-25T00:36:40;3.40;99.90
9219;DHT22;4644;48.858;9.184;2022-11-25T00:39:10;3.40;99.90
9219;DHT22;4644;48.858;9.184;2022-11-25T00:41:39;3.40;99.90
9219;DHT22;4644;48.858;9.184;2022-11-25T00:44:24;3.40;99.90
9219;DHT22;4644;48.858;9.184;2022-11-25T00:47:06;3.30;99.90
9219;DHT22;4644;48.858;9.184;2022-11-25T00:49:34;3.40;99.90
9219;DHT22;4644;48.858;9.184;2022-11-25T00:52:01;3.30;99.90
9219;DHT22;4644;48.858;9.184;2022-11-25T00:54:28;3.30;99.90
9219;DHT22;4644;48.858;9.184;2022-11-25T00:56:57;3.30;99.90
9219;DHT22;4644;48.858;9.184;2022-11-25T00:59:25;3.40;99.90
9219;DHT22;4644;48.858;9.184;2022-11-25T01:01:53;3.30;99.90
9219;DHT22;4644;48.858;9.184;2022-11-25T01:04:23;3.30;99.90
9219;DHT22;4644;48.858;9.184;2022-11-25T01:06:50;3.30;99.90
9219;DHT22;4644;48.858;9.184;2022-11-25T01:09:18;3.40;99.90
9219;DHT22;4644;48.858;9.184;2022-11-25T01:11:45;3.40;99.90
9219;DHT22;4644;48.858;9.184;2022-11-25T01:14:16;3.40;99.90
9219;DHT22;4644;48.858;9.184;2022-11-25T01:16:43;3.40;99.90
9219;DHT22;4644;48.858;9.184;2022-11-25T01:19:14;3.50;99.90
9219;DHT22;4644;48.858;9.184;2022-11-25T01:21:43;3.40;99.90
9219;DHT22;4644;48.858;9.184;2022-11-25T01:24:12;3.50;99.90
9219;DHT22;4644;48.858;9.184;2022-11-25T01:26:39;3.50;99.90
9219;DHT22;4644;48.858;9.184;2022-11-25T01:29:12;3.40;99.90
9219;DHT22;4644;48.858;9.184;2022-11-25T01:31:41;3.50;99.90
9219;DHT22;4644;48.858;9.184;2022-11-25T01:34:12;3.50;99.90
9219;DHT22;4644;48.858;9.184;2022-11-25T01:36:40;3.50;99.90
9219;DHT22;4644;48.858;9.184;2022-11-25T01:39:07;3.50;99.90
9219;DHT22;4644;48.858;9.184;2022-11-25T01:41:34;3.50;99.90
9219;DHT22;4644;48.858;9.184;2022-11-25T01:44:08;3.50;99.90
9219;DHT22;4644;48.858;9.184;2022-11-25T01:46:55;3.50;99.90
9219;DHT22;4644;48.858;9.184;2022-11-25T01:49:29;3.50;99.90
9219;DHT22;4644;48.858;9.184;2022-11-25T01:52:02;3.50;99.90
9219;DHT22;4644;48.858;9.184;2022-11-25T01:54:36;3.60;99.90
9219;DHT22;4644;48.858;9.184;2022-11-25T01:57:07;3.60;99.90
9219;DHT22;4644;48.858;9.184;2022-11-25T01:59:38;3.60;99.90
9219;DHT22;4644;48.858;9.184;2022-11-25T02:02:07;3.60;99.90
9219;DHT22;4644;48.858;9.184;2022-11-25T02:04:36;3.60;99.90
9219;DHT22;4644;48.858;9.184;2022-11-25T02:07:09;3.70;99.90
9219;DHT22;4644;48.858;9.184;2022-11-25T02:09:40;3.70;99.90
9219;DHT22;4644;48.858;9.184;2022-11-25T02:12:08;3.70;99.90
9219;DHT22;4644;48.858;9.184;2022-11-25T02:14:35;3.70;99.90
9219;DHT22;4644;48.858;9.184;2022-11-25T02:17:02;3.70;99.90
9219;DHT22;4644;48.858;9.184;2022-11-25T02:19:42;3.70;99.90
9219;DHT22;4644;48.858;9.184;2022-11-25T02:22:23;3.60;99.90
9219;DHT22;4644;48.858;9.184;2022-11-25T02:24:57;3.70;99.90
9219;DHT22;4644;48.858;9.184;2022-11-25T02:27:27;3.70;99.90
9219;DHT22;4644;48.858;9.184;2022-11-25T02:29:54;3.70;99.90
9219;DHT22;4644;48.858;9.184;2022-11-25T02:32:24;3.60;99.90
9219;DHT22;4644;48.858;9.184;2022-11-25T02:34:51;3.60;99.90
9219;DHT22;4644;48.858;9.184;2022-11-25T02:37:20;3.60;99.90
9219;DHT22;4644;48.858;9.184;2022-11-25T02:39:49;3.60;99.90
9219;DHT22;4644;48.858;9.184;2022-11-25T02:42:18;3.60;99.90
9219;DHT22;4644;48.858;9.184;2022-11-25T02:44:48;3.60;99.90
9219;DHT22;4644;48.858;9.184;2022-11-25T02:47:16;3.50;99.90
9219;DHT22;4644;48.858;9.184;2022-11-25T02:49:43;3.50;99.90
9219;DHT22;4644;48.858;9.184;2022-11-25T02:52:14;3.50;99.90
9219;DHT22;4644;48.858;9.184;2022-11-25T02:54:41;3.50;99.90
9219;DHT22;4644;48.858;9.184;2022-11-25T02:57:08;3.50;99.90
9219;DHT22;4644;48.858;9.184;2022-11-25T02:59:36;3.40;99.90
9219;DHT22;4644;48.858;9.184;2022-11-25T03:02:04;3.40;99.90
9219;DHT22;4644;48.858;9.184;2022-11-25T03:04:31;3.40;99.90
9219;DHT22;4644;48.858;9.184;2022-11-25T03:06:58;3.40;99.90
9219;DHT22;4644;48.858;9.184;2022-11-25T03:09:26;3.40;99.90
9219;DHT22;4644;48.858;9.184;2022-11-25T03:11:52;3.40;99.90
9219;DHT22;4644;48.858;9.184;2022-11-25T03:14:37;3.40;99.90
9219;DHT22;4644;48.858;9.184;2022-11-25T03:17:05;3.40;99.90
9219;DHT22;4644;48.858;9.184;2022-11-25T03:19:32;3.40;99.90
9219;DHT22;4644;48.858;9.184;2022-11-25T03:21:59;3.30;99.90
9219;DHT22;4644;48.858;9.184;2022-11-25T03:24:26;3.40;99.90
9219;DHT22;4644;48.858;9.184;2022-11-25T03:26:53;3.30;99.90
9219;DHT22;4644;48.858;9.184;2022-11-25T03:29:20;3.30;99.90
9219;DHT22;4644;48.858;9.184;2022-11-25T03:31:47;3.30;99.90
9219;DHT22;4644;48.858;9.184;2022-11-25T03:34:15;3.30;99.90
9219;DHT22;4644;48.858;9.184;2022-11-25T03:36:42;3.30;99.90
9219;DHT22;4644;48.858;9.184;2022-11-25T03:39:09;3.30;99.90
9219;DHT22;4644;48.858;9.184;2022-11-25T03:41:36;3.30;99.90
9219;DHT22;4644;48.858;9.184;2022-11-25T03:44:03;3.30;99.90
9219;DHT22;4644;48.858;9.184;2022-11-25T03:46:30;3.30;99.90
9219;DHT22;4644;48.858;9.184;2022-11-25T03:48:57;3.30;99.90
9219;DHT22;4644;48.858;9.184;2022-11-25T03:51:26;3.30;99.90
9219;DHT22;4644;48.858;9.184;2022-11-25T03:53:53;3.30;99.90
9219;DHT22;4644;48.858;9.184;2022-11-25T03:56:19;3.30;99.90
9219;DHT22;4644;48.858;9.184;2022-11-25T03:58:46;3.30;99.90
9219;DHT22;4644;48.858;9.184;2022-11-25T04:01:13;3.20;99.90
9219;DHT22;4644;48.858;9.184;2022-11-25T04:03:40;3.20;99.90
9219;DHT22;4644;48.858;9.184;2022-11-25T04:06:07;3.20;99.90
9219;DHT22;4644;48.858;9.184;2022-11-25T04:08:36;3.20;99.90
9219;DHT22;4644;48.858;9.184;2022-11-25T04:11:03;3.10;99.90
9219;DHT22;4644;48.858;9.184;2022-11-25T04:13:30;3.10;99.90
9219;DHT22;4644;48.858;9.184;2022-11-25T04:15:56;3.10;99.90
9219;DHT22;4644;48.858;9.184;2022-11-25T04:18:23;3.20;99.90
9219;DHT22;4644;48.858;9.184;2022-11-25T04:20:50;3.10;99.90
9219;DHT22;4644;48.858;9.184;2022-11-25T04:23:17;3.10;99.90
9219;DHT22;4644;48.858;9.184;2022-11-25T04:25:48;3.00;99.90
9219;DHT22;4644;48.858;9.184;2022-11-25T04:28:15;3.10;99.90
9219;DHT22;4644;48.858;9.184;2022-11-25T04:30:42;3.10;99.90
9219;DHT22;4644;48.858;9.184;2022-11-25T04:33:09;3.10;99.90
9219;DHT22;4644;48.858;9.184;2022-11-25T04:35:36;3.00;99.90
9219;DHT22;4644;48.858;9.184;2022-11-25T04:38:03;3.00;99.90
9219;DHT22;4644;48.858;9.184;2022-11-25T04:40:30;3.00;99.90
9219;DHT22;4644;48.858;9.184;2022-11-25T04:42:58;3.00;99.90
9219;DHT22;4644;48.858;9.184;2022-11-25T04:45:26;3.00;99.90
9219;DHT22;4644;48.858;9.184;2022-11-25T04:47:53;3.00;99.90
9219;DHT22;4644;48.858;9.184;2022-11-25T04:50:21;3.00;99.90
9219;DHT22;4644;48.858;9.184;2022-11-25T04:52:50;3.00;99.90
9219;DHT22;4644;48.858;9.184;2022-11-25T04:55:17;3.10;99.90
9219;DHT22;4644;48.858;9.184;2022-11-25T04:57:44;3.10;99.90
9219;DHT22;4644;48.858;9.184;2022-11-25T05:00:13;3.00;99.90
9219;DHT22;4644;48.858;9.184;2022-11-25T05:02:39;3.10;99.90
9219;DHT22;4644;48.858;9.184;2022-11-25T05:05:07;3.10;99.90
9219;DHT22;4644;48.858;9.184;2022-11-25T05:07:34;3.10;99.90
9219;DHT22;4644;48.858;9.184;2022-11-25T05:10:01;3.00;99.90
9219;DHT22;4644;48.858;9.184;2022-11-25T05:12:29;3.10;99.90
9219;DHT22;4644;48.858;9.184;2022-11-25T05:14:56;3.00;99.90
9219;DHT22;4644;48.858;9.184;2022-11-25T05:17:26;3.00;99.90
9219;DHT22;4644;48.858;9.184;2022-11-25T05:19:53;3.00;99.90
9219;DHT22;4644;48.858;9.184;2022-11-25T05:22:23;3.00;99.90
9219;DHT22;4644;48.858;9.184;2022-11-25T05:24:52;3.00;99.90
9219;DHT22;4644;48.858;9.184;2022-11-25T05:27:20;3.10;99.90
9219;DHT22;4644;48.858;9.184;2022-11-25T05:29:47;3.10;99.90
9219;DHT22;4644;48.858;9.184;2022-11-25T05:32:15;3.10;99.90
9219;DHT22;4644;48.858;9.184;2022-11-25T05:34:43;3.00;99.90
9219;DHT22;4644;48.858;9.184;2022-11-25T05:37:12;3.00;99.90
9219;DHT22;4644;48.858;9.184;2022-11-25T05:39:40;3.00;99.90
9219;DHT22;4644;48.858;9.184;2022-11-25T05:42:07;3.00;99.90
9219;DHT22;4644;48.858;9.184;2022-11-25T05:44:34;3.00;99.90
9219;DHT22;4644;48.858;9.184;2022-11-25T05:47:01;3.00;99.90
9219;DHT22;4644;48.858;9.184;2022-11-25T05:49:28;3.00;99.90
9219;DHT22;4644;48.858;9.184;2022-11-25T05:51:56;3.00;99.90
9219;DHT22;4644;48.858;9.184;2022-11-25T05:54:26;3.00;99.90
9219;DHT22;4644;48.858;9.184;2022-11-25T05:56:53;3.00;99.90
9219;DHT22;4644;48.858;9.184;2022-11-25T05:59:20;2.90;99.90
9219;DHT22;4644;48.858;9.184;2022-11-25T06:01:47;2.90;99.90
9219;DHT22;4644;48.858;9.184;2022-11-25T06:04:14;3.00;99.90
9219;DHT22;4644;48.858;9.184;2022-11-25T06:06:41;3.00;99.90
9219;DHT22;4644;48.858;9.184;2022-11-25T06:09:09;2.90;99.90
9219;DHT22;4644;48.858;9.184;2022-11-25T06:11:36;2.90;99.90
9219;DHT22;4644;48.858;9.184;2022-11-25T06:14:03;2.90;99.90
9219;DHT22;4644;48.858;9.184;2022-11-25T06:16:30;2.90;99.90
9219;DHT22;4644;48.858;9.184;2022-11-25T06:18:57;2.80;99.90
9219;DHT22;4644;48.858;9.184;2022-11-25T06:21:24;2.90;99.90
9219;DHT22;4644;48.858;9.184;2022-11-25T06:23:51;2.80;99.90
9219;DHT22;4644;48.858;9.184;2022-11-25T06:26:21;2.80;99.90
9219;DHT22;4644;48.858;9.184;2022-11-25T06:28:52;2.80;99.90
9219;DHT22;4644;48.858;9.184;2022-11-25T06:31:22;2.80;99.90
9219;DHT22;4644;48.858;9.184;2022-11-25T06:33:50;2.70;99.90
9219;DHT22;4644;48.858;9.184;2022-11-25T06:36:19;2.70;99.90
9219;DHT22;4644;48.858;9.184;2022-11-25T06:38:47;2.70;99.90
9219;DHT22;4644;48.858;9.184;2022-11-25T06:41:15;2.70;99.90
9219;DHT22;4644;48.858;9.184;2022-11-25T06:43:44;2.70;99.90
9219;DHT22;4644;48.858;9.184;2022-11-25T06:46:13;2.70;99.90
9219;DHT22;4644;48.858;9.184;2022-11-25T06:48:40;2.60;99.90
9219;DHT22;4644;48.858;9.184;2022-11-25T06:51:09;2.60;99.90
9219;DHT22;4644;48.858;9.184;2022-11-25T06:53:37;2.70;99.90
9219;DHT22;4644;48.858;9.184;2022-11-25T06:56:07;2.70;99.90
9219;DHT22;4644;48.858;9.184;2022-11-25T06:58:35;2.70;99.90
9219;DHT22;4644;48.858;9.184;2022-11-25T07:01:06;2.70;99.90
9219;DHT22;4644;48.858;9.184;2022-11-25T07:03:34;2.60;99.90
9219;DHT22;4644;48.858;9.184;2022-11-25T07:06:01;2.70;99.90
9219;DHT22;4644;48.858;9.184;2022-11-25T07:08:29;2.70;99.90
9219;DHT22;4644;48.858;9.184;2022-11-25T07:11:01;2.70;99.90
9219;DHT22;4644;48.858;9.184;2022-11-25T07:13:28;2.80;99.90
9219;DHT22;4644;48.858;9.184;2022-11-25T07:16:00;2.90;99.90
9219;DHT22;4644;48.858;9.184;2022-11-25T07:18:30;2.90;99.90
9219;DHT22;4644;48.858;9.184;2022-11-25T07:21:02;3.00;99.90
9219;DHT22;4644;48.858;9.184;2022-11-25T07:23:29;3.00;99.90
9219;DHT22;4644;48.858;9.184;2022-11-25T07:26:01;3.00;99.90
9219;DHT22;4644;48.858;9.184;2022-11-25T07:28:28;3.10;99.90
9219;DHT22;4644;48.858;9.184;2022-11-25T07:30:55;3.10;99.90
9219;DHT22;4644;48.858;9.184;2022-11-25T07:33:22;3.10;99.90
9219;DHT22;4644;48.858;9.184;2022-11-25T07:35:50;3.10;99.90
9219;DHT22;4644;48.858;9.184;2022-11-25T07:38:17;3.20;99.90
9219;DHT22;4644;48.858;9.184;2022-11-25T07:40:45;3.30;99.90
9219;DHT22;4644;48.858;9.184;2022-11-25T07:43:12;3.30;99.90
9219;DHT22;4644;48.858;9.184;2022-11-25T07:45:40;3.40;99.90
9219;DHT22;4644;48.858;9.184;2022-11-25T07:48:08;3.40;99.90
9219;DHT22;4644;48.858;9.184;2022-11-25T07:50:37;3.50;99.90
9219;DHT22;4644;48.858;9.184;2022-11-25T07:53:15;3.50;99.90
9219;DHT22;4644;48.858;9.184;2022-11-25T07:55:45;3.60;99.90
9219;DHT22;4644;48.858;9.184;2022-11-25T07:58:13;3.60;99.90
9219;DHT22;4644;48.858;9.184;2022-11-25T08:00:40;3.60;99.90
9219;DHT22;4644;48.858;9.184;2022-11-25T08:03:07;3.70;99.90
9219;DHT22;4644;48.858;9.184;2022-11-25T08:05:34;3.70;99.90
9219;DHT22;4644;48.858;9.184;2022-11-25T08:08:00;3.80;99.90
9219;DHT22;4644;48.858;9.184;2022-11-25T08:10:31;3.80;99.90
9219;DHT22;4644;48.858;9.184;2022-11-25T08:12:58;3.80;99.90
9219;DHT22;4644;48.858;9.184;2022-11-25T08:15:25;3.90;99.90
9219;DHT22;4644;48.858;9.184;2022-11-25T08:17:52;3.90;99.90
9219;DHT22;4644;48.858;9.184;2022-11-25T08:20:19;4.00;99.90
9219;DHT22;4644;48.858;9.184;2022-11-25T08:22:46;4.00;99.90
9219;DHT22;4644;48.858;9.184;2022-11-25T08:25:14;4.10;99.90
9219;DHT22;4644;48.858;9.184;2022-11-25T08:27:43;4.20;99.90
9219;DHT22;4644;48.858;9.184;2022-11-25T08:30:10;4.20;99.90
9219;DHT22;4644;48.858;9.184;2022-11-25T08:32:38;4.30;99.90
9219;DHT22;4644;48.858;9.184;2022-11-25T08:35:06;4.40;99.90
9219;DHT22;4644;48.858;9.184;2022-11-25T08:37:33;4.40;99.90
9219;DHT22;4644;48.858;9.184;2022-11-25T08:40:00;4.50;99.90
9219;DHT22;4644;48.858;9.184;2022-11-25T08:42:27;4.40;99.90
9219;DHT22;4644;48.858;9.184;2022-11-25T08:44:56;4.50;99.90
9219;DHT22;4644;48.858;9.184;2022-11-25T08:47:23;4.50;99.90
9219;DHT22;4644;48.858;9.184;2022-11-25T08:49:51;4.50;99.90
9219;DHT22;4644;48.858;9.184;2022-11-25T08:52:18;4.60;99.90
9219;DHT22;4644;48.858;9.184;2022-11-25T08:54:48;4.60;99.90
9219;DHT22;4644;48.858;9.184;2022-11-25T08:57:15;4.60;99.90
9219;DHT22;4644;48.858;9.184;2022-11-25T08:59:42;4.60;99.90
9219;DHT22;4644;48.858;9.184;2022-11-25T09:02:14;4.70;99.90
9219;DHT22;4644;48.858;9.184;2022-11-25T09:04:41;4.80;99.90
9219;DHT22;4644;48.858;9.184;2022-11-25T09:07:09;4.80;99.90
9219;DHT22;4644;48.858;9.184;2022-11-25T09:09:36;4.90;99.90
9219;DHT22;4644;48.858;9.184;2022-11-25T09:12:04;5.00;99.90
9219;DHT22;4644;48.858;9.184;2022-11-25T09:14:31;5.10;99.90
9219;DHT22;4644;48.858;9.184;2022-11-25T09:16:58;5.30;99.90
9219;DHT22;4644;48.858;9.184;2022-11-25T09:19:27;5.60;99.90
9219;DHT22;4644;48.858;9.184;2022-11-25T09:21:54;5.80;99.90
9219;DHT22;4644;48.858;9.184;2022-11-25T09:24:21;5.90;99.90
9219;DHT22;4644;48.858;9.184;2022-11-25T09:26:48;6.10;99.90
9219;DHT22;4644;48.858;9.184;2022-11-25T09:29:16;6.20;99.90
9219;DHT22;4644;48.858;9.184;2022-11-25T09:31:43;6.30;99.90
9219;DHT22;4644;48.858;9.184;2022-11-25T09:34:10;6.40;99.90
9219;DHT22;4644;48.858;9.184;2022-11-25T09:36:38;6.60;99.90
9219;DHT22;4644;48.858;9.184;2022-11-25T09:39:11;6.60;99.90
9219;DHT22;4644;48.858;9.184;2022-11-25T09:41:53;6.70;99.90
9219;DHT22;4644;48.858;9.184;2022-11-25T09:44:47;6.70;99.90
9219;DHT22;4644;48.858;9.184;2022-11-25T09:47:48;6.70;99.90
9219;DHT22;4644;48.858;9.184;2022-11-25T09:50:25;6.70;99.90
9219;DHT22;4644;48.858;9.184;2022-11-25T09:53:04;6.70;99.90
9219;DHT22;4644;48.858;9.184;2022-11-25T09:55:38;6.70;99.90
9219;DHT22;4644;48.858;9.184;2022-11-25T09:58:17;6.80;99.90
9219;DHT22;4644;48.858;9.184;2022-11-25T10:00:49;6.80;99.90
9219;DHT22;4644;48.858;9.184;2022-11-25T10:03:26;6.90;99.90
9219;DHT22;4644;48.858;9.184;2022-11-25T10:06:02;6.90;99.90
9219;DHT22;4644;48.858;9.184;2022-11-25T10:08:34;7.00;99.90
9219;DHT22;4644;48.858;9.184;2022-11-25T10:11:20;7.20;99.90
9219;DHT22;4644;48.858;9.184;2022-11-25T10:13:53;7.30;99.90
9219;DHT22;4644;48.858;9.184;2022-11-25T10:16:32;7.40;99.90
9219;DHT22;4644;48.858;9.184;2022-11-25T10:19:03;7.40;99.90
9219;DHT22;4644;48.858;9.184;2022-11-25T10:21:31;7.40;99.90
9219;DHT22;4644;48.858;9.184;2022-11-25T10:23:59;7.40;99.90
9219;DHT22;4644;48.858;9.184;2022-11-25T10:26:33;7.40;99.90
9219;DHT22;4644;48.858;9.184;2022-11-25T10:29:14;7.30;99.90
9219;DHT22;4644;48.858;9.184;2022-11-25T10:31:52;7.30;99.90
9219;DHT22;4644;48.858;9.184;2022-11-25T10:34:25;7.30;99.90
9219;DHT22;4644;48.858;9.184;2022-11-25T10:36:57;7.30;99.90
9219;DHT22;4644;48.858;9.184;2022-11-25T10:39:30;7.40;99.90
9219;DHT22;4644;48.858;9.184;2022-11-25T10:42:02;7.50;99.90
9219;DHT22;4644;48.858;9.184;2022-11-25T10:44:33;7.50;99.90
9219;DHT22;4644;48.858;9.184;2022-11-25T10:47:21;7.50;99.90
9219;DHT22;4644;48.858;9.184;2022-11-25T10:50:07;7.50;99.90
9219;DHT22;4644;48.858;9.184;2022-11-25T10:52:43;7.50;99.90
9219;DHT22;4644;48.858;9.184;2022-11-25T10:55:15;7.60;99.90
9219;DHT22;4644;48.858;9.184;2022-11-25T10:57:43;7.70;99.90
9219;DHT22;4644;48.858;9.184;2022-11-25T11:00:29;7.70;99.90
9219;DHT22;4644;48.858;9.184;2022-11-25T11:02:57;7.90;99.90
9219;DHT22;4644;48.858;9.184;2022-11-25T11:05:26;8.00;99.90
9219;DHT22;4644;48.858;9.184;2022-11-25T11:08:14;8.10;99.90
9219;DHT22;4644;48.858;9.184;2022-11-25T11:10:44;8.20;99.90
9219;DHT22;4644;48.858;9.184;2022-11-25T11:13:22;8.20;99.90
9219;DHT22;4644;48.858;9.184;2022-11-25T11:15:51;8.20;99.90
9219;DHT22;4644;48.858;9.184;2022-11-25T11:18:27;8.20;99.90
9219;DHT22;4644;48.858;9.184;2022-11-25T11:20:56;8.30;99.90
9219;DHT22;4644;48.858;9.184;2022-11-25T11:23:24;8.30;99.90
9219;DHT22;4644;48.858;9.184;2022-11-25T11:26:04;8.30;99.90
9219;DHT22;4644;48.858;9.184;2022-11-25T11:28:38;8.30;99.90
9219;DHT22;4644;48.858;9.184;2022-11-25T11:31:17;8.30;99.90
9219;DHT22;4644;48.858;9.184;2022-11-25T11:33:51;8.30;99.90
9219;DHT22;4644;48.858;9.184;2022-11-25T11:36:34;8.40;99.90
9219;DHT22;4644;48.858;9.184;2022-11-25T11:39:32;8.40;99.90
9219;DHT22;4644;48.858;9.184;2022-11-25T11:42:16;8.40;99.90
9219;DHT22;4644;48.858;9.184;2022-11-25T11:44:57;8.30;99.90
9219;DHT22;4644;48.858;9.184;2022-11-25T11:47:32;8.30;99.90
9219;DHT22;4644;48.858;9.184;2022-11-25T11:50:25;8.20;99.90
9219;DHT22;4644;48.858;9.184;2022-11-25T11:52:59;8.10;99.90
9219;DHT22;4644;48.858;9.184;2022-11-25T11:55:46;8.10;99.90
9219;DHT22;4644;48.858;9.184;2022-11-25T11:58:23;8.00;99.90
9219;DHT22;4644;48.858;9.184;2022-11-25T12:01:00;7.90;99.90
9219;DHT22;4644;48.858;9.184;2022-11-25T12:03:33;7.80;99.90
9219;DHT22;4644;48.858;9.184;2022-11-25T12:06:03;7.80;99.90
9219;DHT22;4644;48.858;9.184;2022-11-25T12:08:36;7.80;99.90
9219;DHT22;4644;48.858;9.184;2022-11-25T12:11:10;7.70;99.90
9219;DHT22;4644;48.858;9.184;2022-11-25T12:13:45;7.70;99.90
9219;DHT22;4644;48.858;9.184;2022-11-25T12:16:16;7.60;99.90
9219;DHT22;4644;48.858;9.184;2022-11-25T12:18:49;7.60;99.90
9219;DHT22;4644;48.858;9.184;2022-11-25T12:21:31;7.60;99.90
9219;DHT22;4644;48.858;9.184;2022-11-25T12:24:05;7.60;99.90
9219;DHT22;4644;48.858;9.184;2022-11-25T12:26:38;7.60;99.90
9219;DHT22;4644;48.858;9.184;2022-11-25T12:29:14;7.50;99.90
9219;DHT22;4644;48.858;9.184;2022-11-25T12:31:51;7.60;99.90
9219;DHT22;4644;48.858;9.184;2022-11-25T12:34:23;7.60;99.90
9219;DHT22;4644;48.858;9.184;2022-11-25T12:37:01;7.50;99.90
9219;DHT22;4644;48.858;9.184;2022-11-25T12:39:33;7.50;99.90
9219;DHT22;4644;48.858;9.184;2022-11-25T12:42:09;7.50;99.90
9219;DHT22;4644;48.858;9.184;2022-11-25T12:44:47;7.50;99.90
9219;DHT22;4644;48.858;9.184;2022-11-25T12:47:16;7.50;99.90
9219;DHT22;4644;48.858;9.184;2022-11-25T12:49:44;7.40;99.90
9219;DHT22;4644;48.858;9.184;2022-11-25T12:52:41;7.40;99.90
9219;DHT22;4644;48.858;9.184;2022-11-25T12:55:12;7.40;99.90
9219;DHT22;4644;48.858;9.184;2022-11-25T13:01:23;7.40;99.90
9219;DHT22;4644;48.858;9.184;2022-11-25T13:07:17;7.40;99.90
9219;DHT22;4644;48.858;9.184;2022-11-25T13:10:13;7.40;99.90
9219;DHT22;4644;48.858;9.184;2022-11-25T13:12:52;7.40;99.90
9219;DHT22;4644;48.858;9.184;2022-11-25T13:15:26;7.40;99.90
9219;DHT22;4644;48.858;9.184;2022-11-25T13:18:00;7.40;99.90
9219;DHT22;4644;48.858;9.184;2022-11-25T13:20:56;7.50;99.90
9219;DHT22;4644;48.858;9.184;2022-11-25T13:23:42;7.60;99.90
9219;DHT22;4644;48.858;9.184;2022-11-25T13:26:46;7.60;99.90
9219;DHT22;4644;48.858;9.184;2022-11-25T13:32:32;7.80;99.90
9219;DHT22;4644;48.858;9.184;2022-11-25T13:35:31;7.90;99.90
9219;DHT22;4644;48.858;9.184;2022-11-25T13:38:00;7.90;99.90
9219;DHT22;4644;48.858;9.184;2022-11-25T13:40:38;8.00;99.90
9219;DHT22;4644;48.858;9.184;2022-11-25T13:43:19;8.00;99.90
9219;DHT22;4644;48.858;9.184;2022-11-25T13:45:47;8.00;99.90
9219;DHT22;4644;48.858;9.184;2022-11-25T13:48:17;8.00;99.90
9219;DHT22;4644;48.858;9.184;2022-11-25T13:50:48;8.00;99.90
9219;DHT22;4644;48.858;9.184;2022-11-25T13:53:20;8.10;99.90
9219;DHT22;4644;48.858;9.184;2022-11-25T13:55:48;8.10;99.90
9219;DHT22;4644;48.858;9.184;2022-11-25T13:58:19;8.30;99.90
9219;DHT22;4644;48.858;9.184;2022-11-25T14:01:04;8.30;99.90
9219;DHT22;4644;48.858;9.184;2022-11-25T14:03:48;8.40;99.90
9219;DHT22;4644;48.858;9.184;2022-11-25T14:06:52;8.50;99.90
9219;DHT22;4644;48.858;9.184;2022-11-25T14:09:44;8.50;99.90
9219;DHT22;4644;48.858;9.184;2022-11-25T14:15:35;8.60;99.90
9219;DHT22;4644;48.858;9.184;2022-11-25T14:18:27;8.60;99.90
9219;DHT22;4644;48.858;9.184;2022-11-25T14:21:03;8.70;99.90
9219;DHT22;4644;48.858;9.184;2022-11-25T14:23:45;8.70;99.90
9219;DHT22;4644;48.858;9.184;2022-11-25T14:26:25;8.80;99.90
9219;DHT22;4644;48.858;9.184;2022-11-25T14:28:57;8.80;99.90
9219;DHT22;4644;48.858;9.184;2022-11-25T14:31:34;8.80;99.90
9219;DHT22;4644;48.858;9.184;2022-11-25T14:34:09;8.80;99.90
9219;DHT22;4644;48.858;9.184;2022-11-25T14:36:43;8.80;99.90
9219;DHT22;4644;48.858;9.184;2022-11-25T14:39:18;8.80;99.90
9219;DHT22;4644;48.858;9.184;2022-11-25T14:41:54;8.80;99.90
9219;DHT22;4644;48.858;9.184;2022-11-25T14:44:26;8.80;99.90
9219;DHT22;4644;48.858;9.184;2022-11-25T14:46:56;8.80;99.90
9219;DHT22;4644;48.858;9.184;2022-11-25T14:49:23;8.80;99.90
9219;DHT22;4644;48.858;9.184;2022-11-25T14:51:50;8.80;99.90
9219;DHT22;4644;48.858;9.184;2022-11-25T14:54:20;8.80;99.90
9219;DHT22;4644;48.858;9.184;2022-11-25T14:56:48;8.80;99.90
9219;DHT22;4644;48.858;9.184;2022-11-25T14:59:15;8.80;99.90
9219;DHT22;4644;48.858;9.184;2022-11-25T15:01:52;8.80;99.90
9219;DHT22;4644;48.858;9.184;2022-11-25T15:04:20;8.80;99.90
9219;DHT22;4644;48.858;9.184;2022-11-25T15:06:52;8.70;99.90
9219;DHT22;4644;48.858;9.184;2022-11-25T15:09:25;8.80;99.90
9219;DHT22;4644;48.858;9.184;2022-11-25T15:11:56;8.70;99.90
9219;DHT22;4644;48.858;9.184;2022-11-25T15:14:26;8.60;99.90
9219;DHT22;4644;48.858;9.184;2022-11-25T15:16:54;8.60;99.90
9219;DHT22;4644;48.858;9.184;2022-11-25T15:19:23;8.50;99.90
9219;DHT22;4644;48.858;9.184;2022-11-25T15:21:56;8.50;99.90
9219;DHT22;4644;48.858;9.184;2022-11-25T15:24:27;8.40;99.90
9219;DHT22;4644;48.858;9.184;2022-11-25T15:26:56;8.40;99.90
9219;DHT22;4644;48.858;9.184;2022-11-25T15:29:24;8.50;99.90
9219;DHT22;4644;48.858;9.184;2022-11-25T15:31:51;8.40;99.90
9219;DHT22;4644;48.858;9.184;2022-11-25T15:34:20;8.40;99.90
9219;DHT22;4644;48.858;9.184;2022-11-25T15:36:49;8.40;99.90
9219;DHT22;4644;48.858;9.184;2022-11-25T15:39:23;8.40;99.90
9219;DHT22;4644;48.858;9.184;2022-11-25T15:41:54;8.40;99.90
9219;DHT22;4644;48.858;9.184;2022-11-25T15:44:24;8.30;99.90
9219;DHT22;4644;48.858;9.184;2022-11-25T15:46:58;8.30;99.90
9219;DHT22;4644;48.858;9.184;2022-11-25T15:49:25;8.30;99.90
9219;DHT22;4644;48.858;9.184;2022-11-25T15:51:56;8.20;99.90
9219;DHT22;4644;48.858;9.184;2022-11-25T15:54:26;8.20;99.90
9219;DHT22;4644;48.858;9.184;2022-11-25T15:56:58;8.20;99.90
9219;DHT22;4644;48.858;9.184;2022-11-25T15:59:46;8.20;99.90
9219;DHT22;4644;48.858;9.184;2022-11-25T16:02:46;8.20;99.90
9219;DHT22;4644;48.858;9.184;2022-11-25T16:05:23;8.20;99.90
9219;DHT22;4644;48.858;9.184;2022-11-25T16:07:57;8.20;99.90
9219;DHT22;4644;48.858;9.184;2022-11-25T16:10:27;8.20;99.90
9219;DHT22;4644;48.858;9.184;2022-11-25T16:13:21;8.20;99.90
9219;DHT22;4644;48.858;9.184;2022-11-25T16:15:56;8.20;99.90
9219;DHT22;4644;48.858;9.184;2022-11-25T16:18:30;8.10;99.90
9219;DHT22;4644;48.858;9.184;2022-11-25T16:21:01;8.10;99.90
9219;DHT22;4644;48.858;9.184;2022-11-25T16:23:28;8.10;99.90
9219;DHT22;4644;48.858;9.184;2022-11-25T16:25:59;8.10;99.90
9219;DHT22;4644;48.858;9.184;2022-11-25T16:28:28;8.10;99.90
9219;DHT22;4644;48.858;9.184;2022-11-25T16:30:56;8.10;99.90
9219;DHT22;4644;48.858;9.184;2022-11-25T16:33:25;8.10;99.90
9219;DHT22;4644;48.858;9.184;2022-11-25T16:35:52;8.20;99.90
9219;DHT22;4644;48.858;9.184;2022-11-25T16:38:19;8.10;99.90
9219;DHT22;4644;48.858;9.184;2022-11-25T16:40:46;8.10;99.90
9219;DHT22;4644;48.858;9.184;2022-11-25T16:43:17;8.10;99.90
9219;DHT22;4644;48.858;9.184;2022-11-25T16:45:50;8.00;99.90
9219;DHT22;4644;48.858;9.184;2022-11-25T16:48:19;8.00;99.90
9219;DHT22;4644;48.858;9.184;2022-11-25T16:50:47;7.90;99.90
9219;DHT22;4644;48.858;9.184;2022-11-25T16:53:14;7.90;99.90
9219;DHT22;4644;48.858;9.184;2022-11-25T16:55:42;7.80;99.90
9219;DHT22;4644;48.858;9.184;2022-11-25T16:58:15;7.80;99.90